»·PEaware :: N15WS KBLI-C72

N15WS :: KBLI-C72

FLIGHT INFORMATION

Flight Status: Arrived
Operator: Privately registered:
United States
More flights under this callsign
Pilot: William S. (29511)
Aircraft: CIRRUS SR-22 TURBO
(S22T)
More flights by this aircraft type
Origin: KBLI Bellingham Intl
United States
Destination: C72 Cross Winds
United States
More flights between these airports :: More routes between these airports
Route:
File this flight plan on PilotEdge
Remarks: Washington Alphabet
Altitude:
(Current/Filed)
13,500ft
Speed:
(Current/Filed)
180kts
Departed: 05-Nov-22 11:24 AM
Arrived: 05-Nov-22 12:41 PM
Distance/Time
Traveled:
205nm/1:16
Distance/Time
To Go:
Arrived

Flight Plot

Page will automatically refresh every two minutes.

Flight plan parsing failed; only flown route is shown


Map Options




Map Legend


Flown Route
Filed Route
Departure Airport
Arrival Airport
Navaid (VOR, NDB)
Fix

Horizontal Profiles

Position Reports

Time Latitude Longitude Heading Altitude Ground
Speed
05-Nov-22 11:04 48.787600 -122.534125 268 171ft 0kts
05-Nov-22 11:05 48.787600 -122.534125 268 171ft 0kts
05-Nov-22 11:06 48.787600 -122.534125 268 171ft 0kts
05-Nov-22 11:07 48.787600 -122.534125 268 171ft 0kts
05-Nov-22 11:08 48.787600 -122.534125 268 171ft 0kts
05-Nov-22 11:09 48.787600 -122.534125 268 171ft 0kts
05-Nov-22 11:10 48.787600 -122.534125 268 171ft 0kts
05-Nov-22 11:11 48.787599 -122.534146 263 171ft 1kts
05-Nov-22 11:12 48.787597 -122.535162 284 166ft 0kts
05-Nov-22 11:13 48.787600 -122.535195 276 166ft 2kts
05-Nov-22 11:14 48.790775 -122.535826 0 156ft 18kts
05-Nov-22 11:15 48.795933 -122.535838 359 157ft 19kts
05-Nov-22 11:16 48.800787 -122.535695 0 160ft 13kts
05-Nov-22 11:17 48.801786 -122.536264 273 159ft 0kts
05-Nov-22 11:18 48.801786 -122.536264 273 159ft 0kts
05-Nov-22 11:19 48.801786 -122.536264 273 159ft 0kts
05-Nov-22 11:20 48.801786 -122.536264 273 159ft 0kts
05-Nov-22 11:21 48.801786 -122.536275 270 159ft 0kts
05-Nov-22 11:22 48.801631 -122.537570 180 161ft 0kts
05-Nov-22 11:23 48.784814 -122.536634 173 600ft 122kts
05-Nov-22 11:25 48.749662 -122.536230 181 1961ft 129kts
05-Nov-22 11:26 48.712824 -122.534120 166 3122ft 138kts
05-Nov-22 11:27 48.674159 -122.518816 165 4422ft 147kts
05-Nov-22 11:28 48.648654 -122.474315 105 5805ft 157kts
05-Nov-22 11:29 48.636725 -122.408553 112 7053ft 165kts
05-Nov-22 11:30 48.617727 -122.345564 119 8325ft 168kts
05-Nov-22 11:31 48.598283 -122.279918 117 9533ft 174kts
05-Nov-22 11:32 48.578467 -122.213070 117 10726ft 177kts
05-Nov-22 11:33 48.557814 -122.143576 116 11873ft 183kts
05-Nov-22 11:34 48.536514 -122.071899 116 12978ft 190kts
05-Nov-22 11:35 48.513404 -121.994574 116 13552ft 220kts
05-Nov-22 11:36 48.487466 -121.908009 116 13542ft 224kts
05-Nov-22 11:37 48.461663 -121.822171 116 13550ft 222kts
05-Nov-22 11:38 48.435962 -121.736965 116 13551ft 222kts
05-Nov-22 11:39 48.410112 -121.651560 116 13551ft 222kts
05-Nov-22 11:40 48.384165 -121.566129 116 13552ft 222kts
05-Nov-22 11:41 48.358163 -121.480810 116 13553ft 223kts
05-Nov-22 11:42 48.339656 -121.420272 116 13552ft 223kts
05-Nov-22 11:43 48.313719 -121.335627 117 13547ft 223kts
05-Nov-22 11:44 48.287539 -121.250550 117 13536ft 222kts
05-Nov-22 11:45 48.261419 -121.165926 117 13507ft 223kts
05-Nov-22 11:46 48.235169 -121.081169 117 13460ft 223kts
05-Nov-22 11:46 48.213321 -121.010843 118 13440ft 222kts
05-Nov-22 11:48 48.182780 -120.912867 118 13445ft 220kts
05-Nov-22 11:49 48.156691 -120.829486 118 13456ft 220kts
05-Nov-22 11:50 48.130319 -120.745474 118 13447ft 220kts
05-Nov-22 11:50 48.107919 -120.674333 118 13443ft 220kts
05-Nov-22 11:51 48.080822 -120.588545 118 13444ft 220kts
05-Nov-22 11:53 48.072745 -120.480013 91 13445ft 223kts
05-Nov-22 11:53 48.069020 -120.402640 91 13442ft 223kts
05-Nov-22 11:54 48.064447 -120.309893 92 13431ft 222kts
05-Nov-22 11:55 48.059791 -120.217250 92 13428ft 222kts
05-Nov-22 11:56 48.055085 -120.125003 92 13423ft 222kts
05-Nov-22 11:57 48.050193 -120.030646 92 13417ft 222kts
05-Nov-22 11:58 48.045122 -119.934332 92 13414ft 222kts
05-Nov-22 11:59 48.039910 -119.836957 92 13415ft 222kts
05-Nov-22 12:00 48.034631 -119.739866 92 13416ft 222kts
05-Nov-22 12:01 48.029203 -119.641694 92 13417ft 222kts
05-Nov-22 12:02 48.023708 -119.543647 92 13417ft 222kts
05-Nov-22 12:03 48.018163 -119.446281 92 13418ft 222kts
05-Nov-22 12:04 48.012439 -119.347276 93 13418ft 223kts
05-Nov-22 12:05 48.006794 -119.251103 93 13412ft 222kts
05-Nov-22 12:06 48.001069 -119.154952 93 13413ft 221kts
05-Nov-22 12:07 47.995189 -119.057625 93 13414ft 222kts
05-Nov-22 12:08 47.991497 -118.963996 86 13417ft 222kts
05-Nov-22 12:09 47.991315 -118.872299 84 13557ft 223kts
05-Nov-22 12:10 47.991003 -118.778972 83 13555ft 226kts
05-Nov-22 12:11 47.990628 -118.684227 83 13534ft 228kts
05-Nov-22 12:12 47.990149 -118.589627 83 13470ft 230kts
05-Nov-22 12:13 47.989553 -118.488793 84 12499ft 247kts
05-Nov-22 12:14 47.988854 -118.386201 85 11408ft 245kts
05-Nov-22 12:15 47.988069 -118.284600 87 10306ft 240kts
05-Nov-22 12:16 47.987218 -118.185713 88 9244ft 235kts
05-Nov-22 12:17 47.986325 -118.088215 89 8200ft 232kts
05-Nov-22 12:18 47.985317 -117.993159 90 7183ft 226kts
05-Nov-22 12:19 47.984401 -117.908995 91 6248ft 183kts
05-Nov-22 12:20 47.982635 -117.834971 103 5471ft 176kts
05-Nov-22 12:21 47.977030 -117.762971 88 4985ft 164kts
05-Nov-22 12:22 47.978087 -117.694160 87 4999ft 167kts
05-Nov-22 12:23 47.979502 -117.623819 89 4353ft 167kts
05-Nov-22 12:24 47.981245 -117.555909 88 3579ft 156kts
05-Nov-22 12:25 47.976679 -117.496747 142 3180ft 124kts
05-Nov-22 12:26 47.956649 -117.462406 167 3005ft 101kts
05-Nov-22 12:27 47.941902 -117.483431 270 2635ft 85kts
05-Nov-22 12:28 47.958449 -117.505467 310 2617ft 83kts
05-Nov-22 12:29 47.978424 -117.526996 317 2234ft 80kts
05-Nov-22 12:30 48.002586 -117.540220 14 3200ft 107kts
05-Nov-22 12:31 48.000496 -117.498746 147 2978ft 116kts
05-Nov-22 12:32 47.974946 -117.477298 212 2804ft 84kts
05-Nov-22 12:33 47.977603 -117.506156 259 2462ft 73kts
05-Nov-22 12:34 47.983029 -117.531469 300 2356ft 83kts
05-Nov-22 12:35 48.006093 -117.537226 61 2891ft 131kts
05-Nov-22 12:36 47.992232 -117.498905 163 2782ft 101kts
05-Nov-22 12:37 47.967108 -117.485741 160 2755ft 96kts
05-Nov-22 12:38 47.958100 -117.500738 278 2661ft 74kts
05-Nov-22 12:39 47.974733 -117.523185 310 2239ft 72kts
05-Nov-22 12:40 47.980225 -117.529510 295 2207ft 0kts
05-Nov-22 12:41 47.980244 -117.529533 335 2207ft 0kts
05-Nov-22 12:42 47.980244 -117.529533 335 2207ft 0kts
05-Nov-22 12:43 47.980244 -117.529533 335 2207ft 0kts
05-Nov-22 12:44 47.980244 -117.529533 335 2207ft 0kts
05-Nov-22 12:45 47.980244 -117.529533 335 2207ft 0kts
05-Nov-22 12:46 47.980244 -117.529533 335 2207ft 0kts
05-Nov-22 12:47 47.980244 -117.529533 335 2207ft 0kts
05-Nov-22 12:48 47.980244 -117.529533 335 2207ft 0kts
05-Nov-22 12:49 47.980244 -117.529533 335 2207ft 0kts
05-Nov-22 12:50 47.980244 -117.529533 335 2207ft 0kts
05-Nov-22 12:51 47.980244 -117.529533 335 2207ft 0kts
05-Nov-22 12:52 47.980244 -117.529533 335 2207ft 0kts
05-Nov-22 12:53 47.980244 -117.529533 335 2207ft 0kts
05-Nov-22 12:54 47.980244 -117.529533 335 2207ft 0kts

Navigation Log

Ident Type
Flight plan parsing failed, navigation log unavailable